Flight Track Log - Related Links

Times and Time Zones

All times are in EST time to prevent confusion due to time zone crossing. See the WJA535 flight status page for this flight to view local times or setup timezone preferences in your user account.

Time Position Orientation Groundspeed Altitude Reporting Facility
EST Latitude Longitude Course Direction KTS MPH feet Rate Location/Type
Mon 10:42:16 PM 43.6500 -79.6833 227° Southwest 160 184 2,400  Level Toronto Center
Mon 10:43:16 PM 43.6167 -79.7333 227° Southwest 210 242 4,500 2,300 Climbing Toronto Center
Mon 10:44:16 PM 43.6667 -79.8000 316° Northwest 250 288 7,000 2,750 Climbing Toronto Center
Mon 10:45:16 PM 43.7000 -79.8833 299° West 250 288 10,000 2,400 Climbing Toronto Center
Mon 10:46:16 PM 43.7667 -79.9500 324° Northwest 280 322 11,800 2,450 Climbing Toronto Center
Mon 10:47:16 PM 43.8167 -80.0500 305° West 310 357 14,900 3,350 Climbing Toronto Center
Mon 10:48:16 PM 43.8667 -80.1667 301° West 310 357 18,500 3,150 Climbing Toronto Center
Mon 10:49:16 PM 43.9333 -80.2333 324° Northwest 310 357 21,200 2,750 Climbing Toronto Center
Mon 10:50:16 PM 44.0000 -80.3500 308° West 320 368 24,000 2,450 Climbing Toronto Center
Mon 10:51:16 PM 44.0500 -80.4500 305° West 330 380 26,100 1,800 Climbing Toronto Center
Mon 10:52:16 PM 44.1167 -80.5333 318° Northwest 350 403 27,600 1,750 Climbing Toronto Center
Mon 10:53:16 PM 44.1833 -80.6333 313° West 360 414 29,600 2,000 Climbing Toronto Center
Mon 10:54:16 PM 44.2500 -80.7500 309° West 360 414 31,600 1,850 Climbing Toronto Center
Mon 10:55:16 PM 44.3000 -80.8500 305° West 360 414 33,300 1,550 Climbing Toronto Center
Mon 10:56:16 PM 44.3833 -80.9667 315° West 370 426 34,700 1,350 Climbing Toronto Center
Mon 10:57:16 PM 44.4500 -81.0500 318° Northwest 370 426 36,000 1,300 Climbing Toronto Center
Mon 10:58:16 PM 44.5167 -81.1833 305° West 370 426 37,300 1,350 Climbing Toronto Center
Mon 10:59:16 PM 44.5833 -81.2667 318° Northwest 370 426 38,700 1,100 Climbing Toronto Center
Mon 11:00:16 PM 44.6500 -81.3833 309° West 360 414 39,500 650 Climbing Toronto Center
Mon 11:01:16 PM 44.7167 -81.4833 313° West 360 414 40,000 250 Climbing Toronto Center
Mon 11:02:16 PM 44.7833 -81.6000 309° West 360 414 40,000  Level Toronto Center
Mon 11:03:16 PM 44.8500 -81.7000 313° West 370 426 40,000  Level Toronto Center
Mon 11:04:16 PM 44.9333 -81.8167 315° West 370 426 40,000  Level Toronto Center
Mon 11:05:16 PM 45.0000 -81.9167 313° West 370 426 40,000  Level Toronto Center
Mon 11:06:16 PM 45.0500 -82.0333 301° West 370 426 40,000  Level Toronto Center
Mon 11:07:16 PM 45.1167 -82.1333 313° West 370 426 40,000  Level Toronto Center
Mon 11:08:16 PM 45.1833 -82.2667 305° West 370 426 40,000  Level Toronto Center
Mon 11:09:16 PM 45.2500 -82.3500 319° Northwest 370 426 40,000  Level Toronto Center
Mon 11:10:16 PM 45.3167 -82.4833 305° West 370 426 40,000  Level Toronto Center
Mon 11:11:16 PM 45.4000 -82.5833 320° Northwest 370 426 40,000  Level Toronto Center
Mon 11:12:16 PM 45.4500 -82.7000 301° West 370 426 40,000  Level Toronto Center
Mon 11:13:16 PM 45.5167 -82.8000 314° West 370 426 40,000  Level Toronto Center
Mon 11:14:16 PM 45.5833 -82.9167 309° West 370 426 40,000  Level Toronto Center
Mon 11:15:16 PM 45.6500 -83.0167 314° West 370 426 40,000  Level Toronto Center
Mon 11:16:16 PM 45.7167 -83.1500 306° West 370 426 40,000  Level Toronto Center
Mon 11:17:16 PM 45.7833 -83.2500 314° West 370 426 40,000  Level Toronto Center
Mon 11:18:16 PM 45.8500 -83.3667 309° West 370 426 40,000  Level Toronto Center
Mon 11:19:16 PM 45.9167 -83.4667 314° West 370 426 40,000  Level Toronto Center
Mon 11:20:16 PM 45.9833 -83.6000 306° West 370 426 40,000  Level Toronto Center
Mon 11:21:16 PM 46.0500 -83.7000 314° West 370 426 40,000  Level Toronto Center
Mon 11:22:16 PM 46.1167 -83.8167 310° West 370 426 40,000  Level Toronto Center
Mon 11:23:16 PM 46.1833 -83.9500 306° West 370 426 40,000  Level Toronto Center
Mon 11:24:16 PM 46.2500 -84.0500 314° West 380 437 40,000  Level Toronto Center
Mon 11:25:16 PM 46.3167 -84.1667 310° West 380 437 40,000  Level Toronto Center
Mon 11:26:16 PM 46.3667 -84.2667 306° West 380 437 40,000  Level Toronto Center
Mon 11:27:16 PM 46.4333 -84.4000 306° West 370 426 40,000  Level Toronto Center
Mon 11:28:16 PM 46.4833 -84.5167 302° West 360 414 40,000  Level Toronto Center
Mon 11:29:16 PM 46.5333 -84.6500 299° West 360 414 40,000  Level Toronto Center
Mon 11:30:16 PM 46.5833 -84.7833 299° West 370 426 40,000  Level Toronto Center
Mon 11:31:16 PM 46.6333 -84.9000 302° West 360 414 40,000  Level Toronto Center
Mon 11:32:16 PM 46.6667 -85.0333 290° West 370 426 40,000  Level Toronto Center
Mon 11:33:16 PM 46.7333 -85.1833 303° West 370 426 40,000  Level Toronto Center
Mon 11:34:16 PM 46.7833 -85.3000 302° West 370 426 40,000  Level Toronto Center
Mon 11:35:16 PM 46.8333 -85.4333 299° West 370 426 40,000  Level Toronto Center
Mon 11:36:16 PM 46.8833 -85.5667 299° West 370 426 40,000  Level Toronto Center
Mon 11:37:16 PM 46.9333 -85.7167 296° West 370 426 40,000  Level Toronto Center
Mon 11:38:16 PM 46.9833 -85.8333 302° West 370 426 40,000  Level Toronto Center
Mon 11:39:16 PM 47.0333 -85.9667 299° West 370 426 40,000  Level Toronto Center
Mon 11:40:16 PM 47.0833 -86.1000 299° West 370 426 40,000  Level Toronto Center
Mon 11:41:16 PM 47.1333 -86.2333 299° West 370 426 40,000  Level Toronto Center
Mon 11:42:16 PM 47.1667 -86.3833 288° West 370 426 40,000  Level Toronto Center
Mon 11:43:16 PM 47.2167 -86.4833 306° West 360 414 40,000  Level Toronto Center
Mon 11:44:16 PM 47.2667 -86.6333 296° West 370 426 40,000  Level Toronto Center
Mon 11:45:16 PM 47.3167 -86.7667 299° West 370 426 40,000  Level Toronto Center
Mon 11:46:16 PM 47.3667 -86.9000 299° West 360 414 40,000  Level Toronto Center
Mon 11:47:13 PM 47.4000 -86.9833 301° West 370 426 40,000  Level Winnipeg Center
Mon 11:48:13 PM 47.4500 -87.1000 302° West 370 426 40,000  Level Winnipeg Center
Mon 11:49:13 PM 47.4833 -87.2333 290° West 370 426 40,000  Level Winnipeg Center
Mon 11:50:13 PM 47.5500 -87.3667 307° West 370 426 40,000  Level Winnipeg Center
Mon 11:51:13 PM 47.6000 -87.5167 296° West 370 426 40,000  Level Winnipeg Center
Mon 11:52:13 PM 47.6500 -87.6500 299° West 380 437 40,000  Level Winnipeg Center
Mon 11:53:13 PM 47.6833 -87.7667 293° West 380 437 40,000  Level Winnipeg Center
Mon 11:54:13 PM 47.7333 -87.9167 296° West 380 437 40,000  Level Winnipeg Center
Mon 11:55:13 PM 47.7833 -88.0500 299° West 380 437 40,000  Level Winnipeg Center
Mon 11:56:13 PM 47.8167 -88.2000 288° West 370 426 40,000  Level Winnipeg Center
Mon 11:57:13 PM 47.8500 -88.3667 287° West 380 437 40,000  Level Winnipeg Center
Mon 11:58:13 PM 47.9000 -88.4833 303° West 370 426 40,000  Level Winnipeg Center
Mon 11:59:13 PM 47.9333 -88.6500 287° West 370 426 40,000  Level Winnipeg Center
Tue 12:00:13 AM 47.9667 -88.8000 288° West 370 426 40,000  Level Winnipeg Center
Tue 12:01:13 AM 48.0167 -88.9167 303° West 370 426 40,000  Level Winnipeg Center
Tue 12:02:13 AM 48.0500 -89.0833 287° West 370 426 40,000  Level Winnipeg Center
Tue 12:03:13 AM 48.0833 -89.2333 288° West 380 437 40,000  Level Winnipeg Center
Tue 12:04:13 AM 48.1167 -89.3500 293° West 380 437 40,000  Level Winnipeg Center
Tue 12:05:13 AM 48.1500 -89.5167 287° West 380 437 40,000  Level Winnipeg Center
Tue 12:06:13 AM 48.2000 -89.6667 297° West 380 437 40,000  Level Winnipeg Center
Tue 12:07:13 AM 48.2333 -89.8167 288° West 380 437 40,000  Level Winnipeg Center
Tue 12:08:13 AM 48.2667 -89.9500 291° West 380 437 40,000  Level Winnipeg Center
Tue 12:09:13 AM 48.3000 -90.1000 289° West 380 437 40,000  Level Winnipeg Center
Tue 12:10:13 AM 48.3333 -90.2500 289° West 380 437 40,000  Level Winnipeg Center
Tue 12:11:13 AM 48.3833 -90.4000 297° West 380 437 40,000  Level Winnipeg Center
Tue 12:12:13 AM 48.4000 -90.5333 281° West 380 437 40,000  Level Winnipeg Center
Tue 12:13:13 AM 48.4500 -90.7167 292° West 380 437 40,000  Level Winnipeg Center
Tue 12:14:13 AM 48.4833 -90.8333 293° West 380 437 40,000  Level Winnipeg Center
Tue 12:15:13 AM 48.5167 -91.0000 287° West 380 437 40,000  Level Winnipeg Center
Tue 12:16:13 AM 48.5500 -91.1500 289° West 390 449 40,000  Level Winnipeg Center
Tue 12:17:13 AM 48.5833 -91.3000 289° West 390 449 40,000  Level Winnipeg Center
Tue 12:18:13 AM 48.6167 -91.4500 289° West 380 437 40,000  Level Winnipeg Center
Tue 12:19:13 AM 48.6667 -91.6167 294° West 380 437 40,000  Level Winnipeg Center
Tue 12:20:13 AM 48.7000 -91.7667 289° West 380 437 40,000  Level Winnipeg Center
Tue 12:21:13 AM 48.7333 -91.9167 289° West 380 437 40,000  Level Winnipeg Center
Tue 12:22:13 AM 48.7667 -92.0667 289° West 380 437 40,000  Level Winnipeg Center
Tue 12:23:13 AM 48.7833 -92.2167 280° West 390 449 40,000  Level Winnipeg Center
Tue 12:24:13 AM 48.8333 -92.4000 293° West 390 449 40,000  Level Winnipeg Center
Tue 12:25:13 AM 48.8667 -92.5333 291° West 390 449 40,000  Level Winnipeg Center
Tue 12:26:13 AM 48.9000 -92.7000 287° West 390 449 40,000  Level Winnipeg Center
Tue 12:27:13 AM 48.9333 -92.8500 289° West 390 449 40,000  Level Winnipeg Center
Tue 12:28:13 AM 48.9667 -92.9833 291° West 390 449 40,000  Level Winnipeg Center
Tue 12:29:13 AM 49.0000 -93.1667 286° West 390 449 40,000  Level Winnipeg Center
Tue 12:30:13 AM 49.0333 -93.3167 289° West 390 449 40,000  Level Winnipeg Center
Tue 12:31:13 AM 49.0667 -93.5000 286° West 390 449 40,000  Level Winnipeg Center
Tue 12:32:13 AM 49.1000 -93.6500 289° West 390 449 40,000  Level Winnipeg Center
Tue 12:33:13 AM 49.1333 -93.8000 289° West 390 449 40,000  Level Winnipeg Center
Tue 12:34:13 AM 49.1667 -93.9500 289° West 390 449 40,000  Level Winnipeg Center
Tue 12:35:13 AM 49.2000 -94.1000 289° West 390 449 40,000  Level Winnipeg Center
Tue 12:36:13 AM 49.2333 -94.2833 286° West 390 449 40,000  Level Winnipeg Center
Tue 12:37:13 AM 49.2667 -94.4333 289° West 400 460 40,000 -250 Level Winnipeg Center
Tue 12:38:13 AM 49.3000 -94.6000 287° West 400 460 39,500 -700 Descending Winnipeg Center
Tue 12:39:13 AM 49.3167 -94.7667 279° West 400 460 38,600 -1,350 Descending Winnipeg Center
Tue 12:40:13 AM 49.3500 -94.9167 289° West 390 449 36,800 -2,050 Descending Winnipeg Center
Tue 12:41:13 AM 49.4000 -95.0667 297° West 380 437 34,500 -2,200 Descending Winnipeg Center
Tue 12:42:13 AM 49.4167 -95.2167 280° West 370 426 32,400 -2,100 Descending Winnipeg Center
Tue 12:43:13 AM 49.4500 -95.3667 289° West 350 403 30,300 -2,050 Descending Winnipeg Center
Tue 12:44:13 AM 49.4667 -95.5000 281° West 340 391 28,300 -1,900 Descending Winnipeg Center
Tue 12:45:13 AM 49.5000 -95.6333 291° West 320 368 26,500 -1,900 Descending Winnipeg Center
Tue 12:46:13 AM 49.5167 -95.7833 280° West 310 357 24,500 -1,800 Descending Winnipeg Center
Tue 12:47:13 AM 49.5500 -95.8833 297° West 300 345 22,900 -1,600 Descending Winnipeg Center
Tue 12:48:13 AM 49.5667 -95.9833 284° West 280 322 21,300 -1,600 Descending Winnipeg Center
Tue 12:49:13 AM 49.6000 -96.1167 291° West 280 322 19,700 -1,600 Descending Winnipeg Center
Tue 12:50:13 AM 49.6500 -96.2167 308° West 280 322 18,100 -1,600 Descending Winnipeg Center
Tue 12:51:13 AM 49.6833 -96.3167 297° West 280 322 16,500 -1,600 Descending Winnipeg Center
Tue 12:52:13 AM 49.7000 -96.4167 284° West 270 311 14,900 -1,600 Descending Winnipeg Center
Tue 12:53:13 AM 49.7500 -96.5333 304° West 260 299 13,300 -1,550 Descending Winnipeg Center
Tue 12:54:13 AM 49.7833 -96.6333 297° West 270 311 11,800 -1,500 Descending Winnipeg Center
Tue 12:55:13 AM 49.8167 -96.7333 297° West 270 311 10,300 -1,300 Descending Winnipeg Center
Tue 12:56:13 AM 49.8667 -96.8333 308° West 260 299 9,200 -1,200 Descending Winnipeg Center
Tue 12:57:13 AM 49.9000 -96.9167 302° West 260 299 7,900 -1,350 Descending Winnipeg Center
Tue 12:58:13 AM 49.9333 -97.0167 297° West 260 299 6,500 -1,300 Descending Winnipeg Center
Tue 12:59:13 AM 49.9667 -97.1167 297° West 260 299 5,300 -900 Descending Winnipeg Center
Tue 01:00:13 AM 50.0000 -97.2000 302° West 230 265 4,700 -600 Descending Winnipeg Center
Tue 01:01:13 AM 50.0333 -97.2833 302° West 190 219 4,100 -750 Descending Winnipeg Center
Tue 01:02:13 AM 50.0000 -97.3333 224° Southwest 170 196 3,200 -800 Descending Winnipeg Center
Tue 01:03:13 AM 49.9667 -97.3333 180° South 150 173 2,500 -700 Descending Winnipeg Center
Tue 01:04:13 AM 49.9333 -97.3000 147° Southeast 140 161 1,800 -700 Descending Winnipeg Center
Tue 01:05:13 AM 49.9000 -97.2500 136° Southeast 130 150 1,100 -550 Descending Winnipeg Center
Tue 01:06:13 AM 49.8833 -97.2333 147° Southeast 130 150 700 -400 Descending Winnipeg Center

Login

Don't have an account? Register now (free) for customized features, flight alerts, and more!